KHPN/HPN METAR and TAF weather

Enter ICAO airport designator
Station Type Date Time Source
KHPN METAR 2019/07/17 12:56 UTC NOAA

KHPN 171256Z 28003KT 10SM FEW060 27/22 A2998 RMK AO2 SLP145 T02720217


Station Type Date Time Source
KHPN Decoded METAR 2019/07/17 12:56 UTC NOAA

WHITE PLAINS WESTCHESTER, NY, United States (KHPN) 41-04N 073-42W 121M
Jul 17, 2019 - 08:56 AM EDT / 2019.07.17 1256 UTC
Wind: from the W (280 degrees) at 3 MPH (3 KT):0
Visibility: 10 mile(s):0
Sky conditions: mostly clear
Temperature: 81.0 F (27.2 C)
Dew Point: 71.1 F (21.7 C)
Relative Humidity: 71%
Pressure (altimeter): 29.98 in. Hg (1015 hPa)
ob: KHPN 171256Z 28003KT 10SM FEW060 27/22 A2998 RMK AO2 SLP145 T02720217
cycle: 13

Station Type Date Time Source
KHPN TAF 2019/07/17 12:39 UTC NOAA

TAF KHPN 171137Z 1712/1812 22007KT P6SM SCT070 BKN120
FM172000 18007KT P6SM VCSH SCT050 BKN120
FM172200 18005KT 6SM -SHRA SCT020 OVC040
TEMPO 1723/1803 28010G25KT 2SM +TSRA BKN025CB
FM180300 01005KT 5SM -SHRA BR BKN012 OVC020
FM180700 04004KT 3SM -SHRA BR OVC009
FM181000 10005KT 3SM -SHRA BR OVC008
AMD NOT SKED

Example: see airport list